sensor_id;sensor_type;location;lat;lon;timestamp;pressure;altitude;pressure_sealevel;temperature;humidity
51468;BME280;37545;45.302;-122.946;2024-03-22T00:00:42;101080.53;;;17.77;61.39
51468;BME280;37545;45.302;-122.946;2024-03-22T00:03:14;101084.00;;;17.76;60.83
51468;BME280;37545;45.302;-122.946;2024-03-22T00:05:44;101078.78;;;17.78;59.97
51468;BME280;37545;45.302;-122.946;2024-03-22T00:08:12;101071.78;;;17.78;59.43
51468;BME280;37545;45.302;-122.946;2024-03-22T00:10:40;101071.78;;;17.78;61.04
51468;BME280;37545;45.302;-122.946;2024-03-22T00:13:08;101072.66;;;17.79;60.99
51468;BME280;37545;45.302;-122.946;2024-03-22T00:15:40;101070.94;;;17.78;60.66
51468;BME280;37545;45.302;-122.946;2024-03-22T00:18:09;101070.94;;;17.78;60.61
51468;BME280;37545;45.302;-122.946;2024-03-22T00:20:37;101070.03;;;17.74;62.34
51468;BME280;37545;45.302;-122.946;2024-03-22T00:23:11;101069.16;;;17.75;61.62
51468;BME280;37545;45.302;-122.946;2024-03-22T00:25:42;101067.41;;;17.76;61.44
51468;BME280;37545;45.302;-122.946;2024-03-22T00:28:09;101068.28;;;17.76;60.26
51468;BME280;37545;45.302;-122.946;2024-03-22T00:30:38;101067.38;;;17.67;61.33
51468;BME280;37545;45.302;-122.946;2024-03-22T00:33:05;101057.69;;;17.49;61.93
51468;BME280;37545;45.302;-122.946;2024-03-22T00:35:34;101064.63;;;17.45;63.04
51468;BME280;37545;45.302;-122.946;2024-03-22T00:38:01;101059.34;;;17.41;63.07
51468;BME280;37545;45.302;-122.946;2024-03-22T00:40:33;101057.63;;;17.36;63.89
51468;BME280;37545;45.302;-122.946;2024-03-22T00:43:01;101051.47;;;17.36;63.51
51468;BME280;37545;45.302;-122.946;2024-03-22T00:45:29;101057.59;;;17.32;63.13
51468;BME280;37545;45.302;-122.946;2024-03-22T00:47:57;101057.56;;;17.27;61.51
51468;BME280;37545;45.302;-122.946;2024-03-22T00:50:25;101062.75;;;17.23;61.55
51468;BME280;37545;45.302;-122.946;2024-03-22T00:52:53;101052.22;;;17.15;62.34
51468;BME280;37545;45.302;-122.946;2024-03-22T00:55:23;101056.59;;;17.16;62.01
51468;BME280;37545;45.302;-122.946;2024-03-22T00:57:52;101053.94;;;17.13;63.23
51468;BME280;37545;45.302;-122.946;2024-03-22T01:00:21;101053.03;;;17.08;63.53
51468;BME280;37545;45.302;-122.946;2024-03-22T01:02:56;101046.91;;;17.06;64.03
51468;BME280;37545;45.302;-122.946;2024-03-22T01:05:25;101042.56;;;17.05;63.98
51468;BME280;37545;45.302;-122.946;2024-03-22T01:07:52;101042.56;;;17.05;65.13
51468;BME280;37545;45.302;-122.946;2024-03-22T01:10:21;101039.94;;;17.05;64.64
51468;BME280;37545;45.302;-122.946;2024-03-22T01:12:48;101040.81;;;17.05;63.82
51468;BME280;37545;45.302;-122.946;2024-03-22T01:15:20;101033.84;;;17.03;63.41
51468;BME280;37545;45.302;-122.946;2024-03-22T01:17:47;101029.44;;;17.02;62.31
51468;BME280;37545;45.302;-122.946;2024-03-22T01:20:16;101039.91;;;17.02;62.05
51468;BME280;37545;45.302;-122.946;2024-03-22T01:22:43;101025.97;;;17.00;63.30
51468;BME280;37545;45.302;-122.946;2024-03-22T01:25:12;101031.16;;;16.96;62.38
51468;BME280;37545;45.302;-122.946;2024-03-22T01:27:39;101025.94;;;16.96;61.87
51468;BME280;37545;45.302;-122.946;2024-03-22T01:30:11;101025.03;;;16.94;62.34
51468;BME280;37545;45.302;-122.946;2024-03-22T01:32:40;101023.28;;;16.92;62.81
51468;BME280;37545;45.302;-122.946;2024-03-22T01:35:09;101025.88;;;16.90;62.72
51468;BME280;37545;45.302;-122.946;2024-03-22T01:37:37;101032.88;;;16.88;63.26
51468;BME280;37545;45.302;-122.946;2024-03-22T01:40:09;101035.38;;;16.81;63.93
51468;BME280;37545;45.302;-122.946;2024-03-22T01:42:37;101036.22;;;16.78;65.31
51468;BME280;37545;45.302;-122.946;2024-03-22T01:45:06;101040.56;;;16.74;66.95
51468;BME280;37545;45.302;-122.946;2024-03-22T01:47:33;101039.56;;;16.62;66.78
51468;BME280;37545;45.302;-122.946;2024-03-22T01:50:11;101043.00;;;16.58;66.95
51468;BME280;37545;45.302;-122.946;2024-03-22T01:52:40;101043.84;;;16.55;65.47
51468;BME280;37545;45.302;-122.946;2024-03-22T01:55:08;101035.97;;;16.53;65.25
51468;BME280;37545;45.302;-122.946;2024-03-22T01:57:36;101048.13;;;16.48;65.62
51468;BME280;37545;45.302;-122.946;2024-03-22T02:00:10;101047.16;;;16.37;64.93
51468;BME280;37545;45.302;-122.946;2024-03-22T02:02:37;101039.28;;;16.31;66.08
51468;BME280;37545;45.302;-122.946;2024-03-22T02:05:14;101045.34;;;16.30;66.39
51468;BME280;37545;45.302;-122.946;2024-03-22T02:07:42;101042.69;;;16.27;66.36
51468;BME280;37545;45.302;-122.946;2024-03-22T02:10:14;101036.56;;;16.22;66.77
51468;BME280;37545;45.302;-122.946;2024-03-22T02:12:42;101034.75;;;16.19;67.67
51468;BME280;37545;45.302;-122.946;2024-03-22T02:15:11;101036.50;;;16.17;67.87
51468;BME280;37545;45.302;-122.946;2024-03-22T02:17:38;101030.38;;;16.15;68.45
51468;BME280;37545;45.302;-122.946;2024-03-22T02:20:08;101021.63;;;16.08;68.43
51468;BME280;37545;45.302;-122.946;2024-03-22T02:22:38;101024.22;;;16.10;69.05
51468;BME280;37545;45.302;-122.946;2024-03-22T02:25:08;101023.31;;;16.06;69.48
51468;BME280;37545;45.302;-122.946;2024-03-22T02:27:37;101022.41;;;16.03;69.46
51468;BME280;37545;45.302;-122.946;2024-03-22T02:30:09;101021.44;;;15.96;71.03
51468;BME280;37545;45.302;-122.946;2024-03-22T02:32:38;101011.81;;;15.87;73.58
51468;BME280;37545;45.302;-122.946;2024-03-22T02:35:10;101016.00;;;15.78;74.65
51468;BME280;37545;45.302;-122.946;2024-03-22T02:37:38;101014.19;;;15.70;75.61
51468;BME280;37545;45.302;-122.946;2024-03-22T02:40:18;101008.78;;;15.58;77.09
51468;BME280;37545;45.302;-122.946;2024-03-22T02:42:45;101013.06;;;15.52;78.06
51468;BME280;37545;45.302;-122.946;2024-03-22T02:45:14;101017.34;;;15.48;78.16
51468;BME280;37545;45.302;-122.946;2024-03-22T02:47:41;101005.13;;;15.44;78.87
51468;BME280;37545;45.302;-122.946;2024-03-22T02:50:10;101013.75;;;15.41;79.17
51468;BME280;37545;45.302;-122.946;2024-03-22T02:52:37;101004.19;;;15.37;79.86
51468;BME280;37545;45.302;-122.946;2024-03-22T02:55:10;101006.75;;;15.36;80.54
51468;BME280;37545;45.302;-122.946;2024-03-22T02:57:38;101002.34;;;15.32;81.38
51468;BME280;37545;45.302;-122.946;2024-03-22T03:00:09;101009.25;;;15.28;81.18
51468;BME280;37545;45.302;-122.946;2024-03-22T03:02:37;101007.44;;;15.22;82.76
51468;BME280;37545;45.302;-122.946;2024-03-22T03:05:09;101009.06;;;15.16;83.63
51468;BME280;37545;45.302;-122.946;2024-03-22T03:07:37;101017.69;;;15.12;84.05
51468;BME280;37545;45.302;-122.946;2024-03-22T03:10:06;101016.78;;;15.08;85.28
51468;BME280;37545;45.302;-122.946;2024-03-22T03:12:35;101014.06;;;15.00;85.35
51468;BME280;37545;45.302;-122.946;2024-03-22T03:15:12;101010.50;;;14.95;86.69
51468;BME280;37545;45.302;-122.946;2024-03-22T03:17:39;101014.72;;;14.87;88.14
51468;BME280;37545;45.302;-122.946;2024-03-22T03:20:16;101016.34;;;14.82;90.02
51468;BME280;37545;45.302;-122.946;2024-03-22T03:22:46;101019.75;;;14.76;91.30
51468;BME280;37545;45.302;-122.946;2024-03-22T03:25:15;101024.00;;;14.71;91.90
51468;BME280;37545;45.302;-122.946;2024-03-22T03:27:44;101023.00;;;14.63;93.72
51468;BME280;37545;45.302;-122.946;2024-03-22T03:30:15;101025.50;;;14.57;94.25
51468;BME280;37545;45.302;-122.946;2024-03-22T03:32:44;101029.69;;;14.52;95.10
51468;BME280;37545;45.302;-122.946;2024-03-22T03:35:11;101035.72;;;14.49;96.32
51468;BME280;37545;45.302;-122.946;2024-03-22T03:37:41;101023.50;;;14.43;96.68
51468;BME280;37545;45.302;-122.946;2024-03-22T03:40:09;101019.03;;;14.36;97.73
51468;BME280;37545;45.302;-122.946;2024-03-22T03:42:38;101028.59;;;14.37;99.32
51468;BME280;37545;45.302;-122.946;2024-03-22T03:45:15;101026.81;;;14.35;100.00
51468;BME280;37545;45.302;-122.946;2024-03-22T03:47:51;101024.13;;;14.30;100.00
51468;BME280;37545;45.302;-122.946;2024-03-22T03:50:21;101024.06;;;14.27;100.00
51468;BME280;37545;45.302;-122.946;2024-03-22T03:53:02;101027.50;;;14.26;100.00
51468;BME280;37545;45.302;-122.946;2024-03-22T03:55:29;101024.91;;;14.26;100.00
51468;BME280;37545;45.302;-122.946;2024-03-22T03:57:58;101026.63;;;14.25;100.00
51468;BME280;37545;45.302;-122.946;2024-03-22T04:00:27;101027.50;;;14.26;100.00
51468;BME280;37545;45.302;-122.946;2024-03-22T04:02:58;101029.28;;;14.27;100.00
51468;BME280;37545;45.302;-122.946;2024-03-22T04:05:26;101027.50;;;14.26;100.00
51468;BME280;37545;45.302;-122.946;2024-03-22T04:07:55;101024.94;;;14.28;100.00
51468;BME280;37545;45.302;-122.946;2024-03-22T04:10:22;101010.16;;;14.25;100.00
51468;BME280;37545;45.302;-122.946;2024-03-22T04:12:51;101012.78;;;14.28;100.00
51468;BME280;37545;45.302;-122.946;2024-03-22T04:15:18;101018.88;;;14.27;100.00
51468;BME280;37545;45.302;-122.946;2024-03-22T04:17:49;101021.38;;;14.24;100.00
51468;BME280;37545;45.302;-122.946;2024-03-22T04:20:17;101030.09;;;14.26;100.00
51468;BME280;37545;45.302;-122.946;2024-03-22T04:22:51;101031.00;;;14.28;100.00
51468;BME280;37545;45.302;-122.946;2024-03-22T04:25:18;101024.06;;;14.27;100.00
51468;BME280;37545;45.302;-122.946;2024-03-22T04:27:47;101022.25;;;14.23;100.00
51468;BME280;37545;45.302;-122.946;2024-03-22T04:30:15;101023.03;;;14.19;100.00
51468;BME280;37545;45.302;-122.946;2024-03-22T04:32:48;101026.50;;;14.18;100.00
51468;BME280;37545;45.302;-122.946;2024-03-22T04:35:15;101023.91;;;14.18;100.00
51468;BME280;37545;45.302;-122.946;2024-03-22T04:37:46;101017.78;;;14.17;100.00
51468;BME280;37545;45.302;-122.946;2024-03-22T04:40:15;101015.19;;;14.16;100.00
51468;BME280;37545;45.302;-122.946;2024-03-22T04:42:44;101017.78;;;14.17;100.00
51468;BME280;37545;45.302;-122.946;2024-03-22T04:45:12;101016.06;;;14.16;100.00
51468;BME280;37545;45.302;-122.946;2024-03-22T04:47:41;101013.44;;;14.16;100.00
51468;BME280;37545;45.302;-122.946;2024-03-22T04:50:11;101010.72;;;14.10;100.00
51468;BME280;37545;45.302;-122.946;2024-03-22T04:52:41;101013.41;;;14.15;100.00
51468;BME280;37545;45.302;-122.946;2024-03-22T04:55:08;101016.88;;;14.14;100.00
51468;BME280;37545;45.302;-122.946;2024-03-22T04:57:37;101022.00;;;14.11;100.00
51468;BME280;37545;45.302;-122.946;2024-03-22T05:00:08;101015.88;;;14.09;100.00
51468;BME280;37545;45.302;-122.946;2024-03-22T05:02:39;101010.72;;;14.10;100.00
51468;BME280;37545;45.302;-122.946;2024-03-22T05:05:07;101001.13;;;14.08;100.00
51468;BME280;37545;45.302;-122.946;2024-03-22T05:07:37;100996.75;;;14.05;100.00
51468;BME280;37545;45.302;-122.946;2024-03-22T05:10:05;100989.72;;;14.01;100.00
51468;BME280;37545;45.302;-122.946;2024-03-22T05:12:35;100999.28;;;14.00;100.00
51468;BME280;37545;45.302;-122.946;2024-03-22T05:15:03;100994.00;;;13.97;100.00
51468;BME280;37545;45.302;-122.946;2024-03-22T05:17:31;100999.22;;;13.97;100.00
51468;BME280;37545;45.302;-122.946;2024-03-22T05:19:59;100989.59;;;13.93;100.00
51468;BME280;37545;45.302;-122.946;2024-03-22T05:22:28;100980.88;;;13.91;100.00
51468;BME280;37545;45.302;-122.946;2024-03-22T05:24:59;100980.88;;;13.91;100.00
51468;BME280;37545;45.302;-122.946;2024-03-22T05:27:27;100983.44;;;13.88;100.00
51468;BME280;37545;45.302;-122.946;2024-03-22T05:29:54;100978.16;;;13.85;100.00
51468;BME280;37545;45.302;-122.946;2024-03-22T05:32:23;100969.44;;;13.83;100.00
51468;BME280;37545;45.302;-122.946;2024-03-22T05:34:51;100970.25;;;13.80;100.00
51468;BME280;37545;45.302;-122.946;2024-03-22T05:37:22;100964.13;;;13.77;100.00
51468;BME280;37545;45.302;-122.946;2024-03-22T05:39:49;100964.06;;;13.74;100.00
51468;BME280;37545;45.302;-122.946;2024-03-22T05:42:19;100968.34;;;13.70;100.00
51468;BME280;37545;45.302;-122.946;2024-03-22T05:44:47;100961.31;;;13.66;100.00
51468;BME280;37545;45.302;-122.946;2024-03-22T05:47:16;100963.03;;;13.66;100.00
51468;BME280;37545;45.302;-122.946;2024-03-22T05:49:45;100969.94;;;13.65;100.00
51468;BME280;37545;45.302;-122.946;2024-03-22T05:52:13;100974.28;;;13.65;100.00
51468;BME280;37545;45.302;-122.946;2024-03-22T05:54:41;100974.22;;;13.61;100.00
51468;BME280;37545;45.302;-122.946;2024-03-22T05:57:10;100972.44;;;13.60;100.00
51468;BME280;37545;45.302;-122.946;2024-03-22T05:59:39;100972.41;;;13.57;100.00
51468;BME280;37545;45.302;-122.946;2024-03-22T06:02:08;100975.84;;;13.56;100.00
51468;BME280;37545;45.302;-122.946;2024-03-22T06:04:36;100975.78;;;13.53;100.00
51468;BME280;37545;45.302;-122.946;2024-03-22T06:07:04;100972.19;;;13.48;100.00
51468;BME280;37545;45.302;-122.946;2024-03-22T06:09:32;100965.22;;;13.46;100.00
51468;BME280;37545;45.302;-122.946;2024-03-22T06:12:12;100957.38;;;13.43;100.00
51468;BME280;37545;45.302;-122.946;2024-03-22T06:14:41;100958.19;;;13.40;100.00
51468;BME280;37545;45.302;-122.946;2024-03-22T06:17:10;100968.50;;;13.37;100.00
51468;BME280;37545;45.302;-122.946;2024-03-22T06:19:38;100967.56;;;13.33;100.00
51468;BME280;37545;45.302;-122.946;2024-03-22T06:22:07;100968.34;;;13.31;100.00
51468;BME280;37545;45.302;-122.946;2024-03-22T06:24:34;100965.63;;;13.26;100.00
51468;BME280;37545;45.302;-122.946;2024-03-22T06:27:03;100963.88;;;13.25;100.00
51468;BME280;37545;45.302;-122.946;2024-03-22T06:29:30;100959.50;;;13.23;100.00
51468;BME280;37545;45.302;-122.946;2024-03-22T06:32:00;100951.66;;;13.21;100.00
51468;BME280;37545;45.302;-122.946;2024-03-22T06:34:28;100951.56;;;13.16;100.00
51468;BME280;37545;45.302;-122.946;2024-03-22T06:36:56;100943.66;;;13.10;100.00
51468;BME280;37545;45.302;-122.946;2024-03-22T06:39:26;100933.13;;;13.04;100.00
51468;BME280;37545;45.302;-122.946;2024-03-22T06:41:55;100936.47;;;13.00;100.00
51468;BME280;37545;45.302;-122.946;2024-03-22T06:44:22;100924.34;;;12.99;100.00
51468;BME280;37545;45.302;-122.946;2024-03-22T06:46:51;100919.88;;;12.93;100.00
51468;BME280;37545;45.302;-122.946;2024-03-22T06:49:20;100918.09;;;12.91;100.00
51468;BME280;37545;45.302;-122.946;2024-03-22T06:51:49;100910.19;;;12.86;100.00
51468;BME280;37545;45.302;-122.946;2024-03-22T06:54:19;100910.09;;;12.82;100.00
51468;BME280;37545;45.302;-122.946;2024-03-22T06:56:48;100897.88;;;12.77;100.00
51468;BME280;37545;45.302;-122.946;2024-03-22T06:59:15;100892.63;;;12.74;100.00
51468;BME280;37545;45.302;-122.946;2024-03-22T07:01:44;100880.38;;;12.69;100.00
51468;BME280;37545;45.302;-122.946;2024-03-22T07:04:11;100875.97;;;12.65;100.00
51468;BME280;37545;45.302;-122.946;2024-03-22T07:06:42;100871.50;;;12.59;100.00
51468;BME280;37545;45.302;-122.946;2024-03-22T07:09:09;100885.25;;;12.55;100.00
51468;BME280;37545;45.302;-122.946;2024-03-22T07:11:38;100888.69;;;12.54;100.00
51468;BME280;37545;45.302;-122.946;2024-03-22T07:14:05;100880.00;;;12.52;100.00
51468;BME280;37545;45.302;-122.946;2024-03-22T07:16:34;100870.41;;;12.49;100.00
51468;BME280;37545;45.302;-122.946;2024-03-22T07:19:03;100866.91;;;12.47;100.00
51468;BME280;37545;45.302;-122.946;2024-03-22T07:21:32;100869.44;;;12.46;100.00
51468;BME280;37545;45.302;-122.946;2024-03-22T07:24:01;100867.72;;;12.45;100.00
51468;BME280;37545;45.302;-122.946;2024-03-22T07:26:29;100867.72;;;12.45;100.00
51468;BME280;37545;45.302;-122.946;2024-03-22T07:28:57;100872.91;;;12.45;100.00
51468;BME280;37545;45.302;-122.946;2024-03-22T07:31:26;100867.72;;;12.45;100.00
51468;BME280;37545;45.302;-122.946;2024-03-22T07:33:53;100865.94;;;12.42;100.00
51468;BME280;37545;45.302;-122.946;2024-03-22T07:36:23;100873.72;;;12.42;100.00
51468;BME280;37545;45.302;-122.946;2024-03-22T07:38:50;100873.72;;;12.44;100.00
51468;BME280;37545;45.302;-122.946;2024-03-22T07:41:20;100878.03;;;12.42;100.00
51468;BME280;37545;45.302;-122.946;2024-03-22T07:43:50;100862.38;;;12.39;100.00
51468;BME280;37545;45.302;-122.946;2024-03-22T07:46:18;100855.34;;;12.34;100.00
51468;BME280;37545;45.302;-122.946;2024-03-22T07:48:46;100851.00;;;12.33;100.00
51468;BME280;37545;45.302;-122.946;2024-03-22T07:51:14;100844.75;;;12.25;100.00
51468;BME280;37545;45.302;-122.946;2024-03-22T07:53:42;100859.38;;;12.22;100.00
51468;BME280;37545;45.302;-122.946;2024-03-22T07:56:10;100864.50;;;12.19;100.00
51468;BME280;37545;45.302;-122.946;2024-03-22T07:58:39;100862.63;;;12.13;100.00
51468;BME280;37545;45.302;-122.946;2024-03-22T08:01:09;100869.41;;;12.08;100.00
51468;BME280;37545;45.302;-122.946;2024-03-22T08:03:37;100858.69;;;11.94;100.00
51468;BME280;37545;45.302;-122.946;2024-03-22T08:06:06;100859.16;;;11.81;100.00
51468;BME280;37545;45.302;-122.946;2024-03-22T08:08:35;100860.66;;;11.71;100.00
51468;BME280;37545;45.302;-122.946;2024-03-22T08:11:04;100848.41;;;11.65;100.00
51468;BME280;37545;45.302;-122.946;2024-03-22T08:13:31;100853.38;;;11.58;100.00
51468;BME280;37545;45.302;-122.946;2024-03-22T08:16:02;100852.34;;;11.51;100.00
51468;BME280;37545;45.302;-122.946;2024-03-22T08:18:29;100843.59;;;11.47;100.00
51468;BME280;37545;45.302;-122.946;2024-03-22T08:20:59;100842.69;;;11.45;100.00
51468;BME280;37545;45.302;-122.946;2024-03-22T08:23:26;100826.91;;;11.36;100.00
51468;BME280;37545;45.302;-122.946;2024-03-22T08:25:55;100837.41;;;11.42;100.00
51468;BME280;37545;45.302;-122.946;2024-03-22T08:28:23;100824.34;;;11.38;100.00
51468;BME280;37545;45.302;-122.946;2024-03-22T08:30:52;100823.63;;;11.43;100.00
51468;BME280;37545;45.302;-122.946;2024-03-22T08:33:21;100810.56;;;11.39;100.00
51468;BME280;37545;45.302;-122.946;2024-03-22T08:35:50;100815.75;;;11.39;100.00
51468;BME280;37545;45.302;-122.946;2024-03-22T08:38:17;100819.06;;;11.35;100.00
51468;BME280;37545;45.302;-122.946;2024-03-22T08:40:46;100815.56;;;11.32;100.00
51468;BME280;37545;45.302;-122.946;2024-03-22T08:43:13;100808.66;;;11.31;100.00
51468;BME280;37545;45.302;-122.946;2024-03-22T08:45:42;100804.22;;;11.29;100.00
51468;BME280;37545;45.302;-122.946;2024-03-22T08:48:10;100804.16;;;11.26;100.00
51468;BME280;37545;45.302;-122.946;2024-03-22T08:50:42;100782.56;;;11.25;100.00
51468;BME280;37545;45.302;-122.946;2024-03-22T08:53:09;100774.91;;;11.30;100.00
51468;BME280;37545;45.302;-122.946;2024-03-22T08:55:38;100780.91;;;11.27;100.00
51468;BME280;37545;45.302;-122.946;2024-03-22T08:58:05;100786.88;;;11.25;100.00
51468;BME280;37545;45.302;-122.946;2024-03-22T09:00:34;100787.63;;;11.21;100.00
51468;BME280;37545;45.302;-122.946;2024-03-22T09:03:02;100794.59;;;11.23;100.00
51468;BME280;37545;45.302;-122.946;2024-03-22T09:05:30;100779.91;;;11.24;100.00
51468;BME280;37545;45.302;-122.946;2024-03-22T09:08:01;100774.81;;;11.27;100.00
51468;BME280;37545;45.302;-122.946;2024-03-22T09:10:30;100758.41;;;11.26;100.00
51468;BME280;37545;45.302;-122.946;2024-03-22T09:12:57;100751.38;;;11.22;100.00
51468;BME280;37545;45.302;-122.946;2024-03-22T09:15:26;100740.31;;;11.28;100.00
51468;BME280;37545;45.302;-122.946;2024-03-22T09:17:53;100745.66;;;11.34;100.00
51468;BME280;37545;45.302;-122.946;2024-03-22T09:20:22;100740.63;;;11.40;100.00
51468;BME280;37545;45.302;-122.946;2024-03-22T09:22:49;100737.34;;;11.46;100.00
51468;BME280;37545;45.302;-122.946;2024-03-22T09:25:22;100727.00;;;11.47;100.00
51468;BME280;37545;45.302;-122.946;2024-03-22T09:27:49;100726.25;;;11.51;100.00
51468;BME280;37545;45.302;-122.946;2024-03-22T09:30:18;100717.72;;;11.56;100.00
51468;BME280;37545;45.302;-122.946;2024-03-22T09:32:46;100714.31;;;11.58;100.00
51468;BME280;37545;45.302;-122.946;2024-03-22T09:35:14;100711.78;;;11.60;100.00
51468;BME280;37545;45.302;-122.946;2024-03-22T09:37:44;100722.19;;;11.63;100.00
51468;BME280;37545;45.302;-122.946;2024-03-22T09:40:12;100717.81;;;11.60;100.00
51468;BME280;37545;45.302;-122.946;2024-03-22T09:42:42;100710.16;;;11.65;100.00
51468;BME280;37545;45.302;-122.946;2024-03-22T09:45:10;100707.63;;;11.68;100.00
51468;BME280;37545;45.302;-122.946;2024-03-22T09:47:40;100707.69;;;11.69;100.00
51468;BME280;37545;45.302;-122.946;2024-03-22T09:50:11;100702.50;;;11.69;100.00
51468;BME280;37545;45.302;-122.946;2024-03-22T09:52:39;100703.38;;;11.70;100.00
51468;BME280;37545;45.302;-122.946;2024-03-22T09:55:09;100693.91;;;11.70;100.00
51468;BME280;37545;45.302;-122.946;2024-03-22T09:57:38;100698.19;;;11.70;100.00
51468;BME280;37545;45.302;-122.946;2024-03-22T10:00:10;100690.41;;;11.70;100.00
51468;BME280;37545;45.302;-122.946;2024-03-22T10:02:40;100688.66;;;11.69;100.00
51468;BME280;37545;45.302;-122.946;2024-03-22T10:05:10;100692.13;;;11.69;100.00
51468;BME280;37545;45.302;-122.946;2024-03-22T10:07:38;100680.03;;;11.68;100.00
51468;BME280;37545;45.302;-122.946;2024-03-22T10:10:07;100690.41;;;11.70;100.00
51468;BME280;37545;45.302;-122.946;2024-03-22T10:12:37;100692.19;;;11.72;100.00
51468;BME280;37545;45.302;-122.946;2024-03-22T10:15:08;100682.78;;;11.76;100.00
51468;BME280;37545;45.302;-122.946;2024-03-22T10:17:35;100689.69;;;11.76;100.00
51468;BME280;37545;45.302;-122.946;2024-03-22T10:20:05;100687.09;;;11.76;100.00
51468;BME280;37545;45.302;-122.946;2024-03-22T10:22:35;100672.41;;;11.76;100.00
51468;BME280;37545;45.302;-122.946;2024-03-22T10:25:05;100663.72;;;11.74;100.00
51468;BME280;37545;45.302;-122.946;2024-03-22T10:27:33;100661.09;;;11.72;100.00
51468;BME280;37545;45.302;-122.946;2024-03-22T10:30:01;100662.00;;;11.73;100.00
51468;BME280;37545;45.302;-122.946;2024-03-22T10:32:33;100645.53;;;11.72;100.00
51468;BME280;37545;45.302;-122.946;2024-03-22T10:35:07;100646.50;;;11.76;100.00
51468;BME280;37545;45.302;-122.946;2024-03-22T10:37:36;100640.50;;;11.79;100.00
51468;BME280;37545;45.302;-122.946;2024-03-22T10:40:06;100633.69;;;11.82;100.00
51468;BME280;37545;45.302;-122.946;2024-03-22T10:42:34;100626.00;;;11.87;100.00
51468;BME280;37545;45.302;-122.946;2024-03-22T10:45:04;100622.63;;;11.89;100.00
51468;BME280;37545;45.302;-122.946;2024-03-22T10:47:34;100610.59;;;11.91;100.00
51468;BME280;37545;45.302;-122.946;2024-03-22T10:50:06;100605.44;;;11.94;100.00
51468;BME280;37545;45.302;-122.946;2024-03-22T10:52:38;100600.31;;;11.96;100.00
51468;BME280;37545;45.302;-122.946;2024-03-22T10:55:14;100592.59;;;11.99;100.00
51468;BME280;37545;45.302;-122.946;2024-03-22T10:57:44;100590.84;;;12.00;100.00
51468;BME280;37545;45.302;-122.946;2024-03-22T11:00:14;100585.66;;;12.00;100.00
51468;BME280;37545;45.302;-122.946;2024-03-22T11:02:46;100589.94;;;11.98;100.00
51468;BME280;37545;45.302;-122.946;2024-03-22T11:05:17;100586.44;;;11.95;100.00
51468;BME280;37545;45.302;-122.946;2024-03-22T11:07:44;100583.84;;;11.94;100.00
51468;BME280;37545;45.302;-122.946;2024-03-22T11:10:14;100574.28;;;11.93;100.00
51468;BME280;37545;45.302;-122.946;2024-03-22T11:12:45;100567.41;;;11.93;100.00
51468;BME280;37545;45.302;-122.946;2024-03-22T11:15:18;100555.31;;;11.95;100.00
51468;BME280;37545;45.302;-122.946;2024-03-22T11:17:47;100557.97;;;11.97;100.00
51468;BME280;37545;45.302;-122.946;2024-03-22T11:20:16;100560.50;;;11.95;100.00
51468;BME280;37545;45.302;-122.946;2024-03-22T11:22:46;100562.28;;;11.97;100.00
51468;BME280;37545;45.302;-122.946;2024-03-22T11:25:14;100538.03;;;11.94;100.00
51468;BME280;37545;45.302;-122.946;2024-03-22T11:27:42;100532.91;;;11.96;100.00
51468;BME280;37545;45.302;-122.946;2024-03-22T11:30:11;100555.09;;;11.86;100.00
51468;BME280;37545;45.302;-122.946;2024-03-22T11:32:39;100571.41;;;11.81;100.00
51468;BME280;37545;45.302;-122.946;2024-03-22T11:35:15;100578.31;;;11.80;100.00
51468;BME280;37545;45.302;-122.946;2024-03-22T11:37:43;100584.28;;;11.76;100.00
51468;BME280;37545;45.302;-122.946;2024-03-22T11:40:12;100584.13;;;11.70;100.00
51468;BME280;37545;45.302;-122.946;2024-03-22T11:42:40;100574.47;;;11.63;100.00
51468;BME280;37545;45.302;-122.946;2024-03-22T11:45:10;100565.72;;;11.58;100.00
51468;BME280;37545;45.302;-122.946;2024-03-22T11:47:39;100569.84;;;11.49;100.00
51468;BME280;37545;45.302;-122.946;2024-03-22T11:50:10;100569.84;;;11.49;100.00
51468;BME280;37545;45.302;-122.946;2024-03-22T11:52:42;100565.59;;;11.51;100.00
51468;BME280;37545;45.302;-122.946;2024-03-22T11:55:14;100557.91;;;11.55;100.00
51468;BME280;37545;45.302;-122.946;2024-03-22T11:57:48;100562.34;;;11.60;100.00
51468;BME280;37545;45.302;-122.946;2024-03-22T12:00:18;100556.34;;;11.63;100.00
51468;BME280;37545;45.302;-122.946;2024-03-22T12:02:50;100539.88;;;11.61;100.00
51468;BME280;37545;45.302;-122.946;2024-03-22T12:05:18;100518.31;;;11.62;100.00
51468;BME280;37545;45.302;-122.946;2024-03-22T12:07:48;100507.13;;;11.64;100.00
51468;BME280;37545;45.302;-122.946;2024-03-22T12:10:15;100514.06;;;11.64;100.00
51468;BME280;37545;45.302;-122.946;2024-03-22T12:12:44;100515.63;;;11.59;100.00
51468;BME280;37545;45.302;-122.946;2024-03-22T12:15:11;100532.00;;;11.55;100.00
51468;BME280;37545;45.302;-122.946;2024-03-22T12:17:40;100505.22;;;11.56;100.00
51468;BME280;37545;45.302;-122.946;2024-03-22T12:20:10;100493.19;;;11.58;100.00
51468;BME280;37545;45.302;-122.946;2024-03-22T12:22:41;100494.09;;;11.60;100.00